Time;durP1;ratioP1;P1;durP2;ratioP2;P2;SDS_P1;SDS_P2;PMS_P1;PMS_P2;Temp;Humidity;BMP_temperature;BMP_pressure;BME280_temperature;BME280_humidity;BME280_pressure;Samples;Min_cycle;Max_cycle;Signal;HPM_P1;HPM_P2
2023/09/08 00:02:11;;;;;;;20.40;18.30;;;19.50;99.90;;;;;;5000910;28;37834;-82
2023/09/08 00:04:38;;;;;;;19.65;17.50;;;19.50;99.90;;;;;;5011736;28;38358;-80
2023/09/08 00:07:04;;;;;;;22.52;19.23;;;19.40;99.90;;;;;;5016229;28;37734;-80
2023/09/08 00:09:30;;;;;;;20.48;18.38;;;19.40;99.90;;;;;;5004917;28;37061;-80
2023/09/08 00:11:56;;;;;;;21.73;19.52;;;19.40;99.90;;;;;;5016779;28;39176;-80
2023/09/08 00:14:22;;;;;;;22.10;19.80;;;19.30;99.90;;;;;;5027105;28;37753;-83
2023/09/08 00:16:48;;;;;;;21.60;19.42;;;19.30;99.90;;;;;;5018348;28;37190;-82
2023/09/08 00:19:15;;;;;;;22.75;20.35;;;19.30;99.90;;;;;;5017367;28;37553;-80
2023/09/08 00:21:43;;;;;;;22.27;19.33;;;19.30;99.90;;;;;;5021201;28;38062;-81
2023/09/08 00:24:09;;;;;;;23.77;21.27;;;19.20;99.90;;;;;;5015975;28;37249;-81
2023/09/08 00:26:35;;;;;;;22.30;19.95;;;19.20;99.90;;;;;;5001841;28;36777;-81
2023/09/08 00:29:04;;;;;;;22.00;19.70;;;19.20;99.90;;;;;;5006723;28;36119;-81
2023/09/08 00:31:30;;;;;;;23.40;20.95;;;19.20;99.90;;;;;;4999392;28;48369;-81
2023/09/08 00:33:56;;;;;;;22.60;19.58;;;19.10;99.90;;;;;;5004979;28;38439;-81
2023/09/08 00:36:22;;;;;;;22.63;20.35;;;19.10;99.90;;;;;;4994856;28;37154;-81
2023/09/08 00:38:48;;;;;;;24.25;21.85;;;19.00;99.90;;;;;;5013752;28;38217;-81
2023/09/08 00:41:15;;;;;;;23.33;20.92;;;19.10;99.90;;;;;;5012897;28;40076;-81
2023/09/08 00:43:41;;;;;;;25.33;22.33;;;19.00;99.90;;;;;;5000507;28;38526;-81
2023/09/08 00:46:08;;;;;;;23.30;21.00;;;19.00;99.90;;;;;;4997023;28;38442;-82
2023/09/08 00:48:35;;;;;;;24.38;21.77;;;19.00;99.90;;;;;;5004512;28;36251;-81
2023/09/08 00:51:02;;;;;;;24.05;21.70;;;18.90;99.90;;;;;;5001444;28;38926;-81
2023/09/08 00:53:28;;;;;;;25.17;22.63;;;18.90;99.90;;;;;;5007764;28;37805;-81
2023/09/08 00:55:55;;;;;;;26.77;24.00;;;18.90;99.90;;;;;;5001239;28;36902;-82
2023/09/08 00:58:22;;;;;;;25.60;23.00;;;18.90;99.90;;;;;;4995816;28;37616;-82
2023/09/08 01:03:24;;;;;;;25.45;22.88;;;18.80;99.90;;;;;;5205019;22;20049;-85
2023/09/08 01:05:52;;;;;;;24.58;21.98;;;18.80;99.90;;;;;;5024895;28;37191;-83
2023/09/08 01:08:18;;;;;;;23.55;21.25;;;18.80;99.90;;;;;;5036344;28;36215;-85
2023/09/08 01:10:45;;;;;;;25.00;22.48;;;18.80;99.90;;;;;;5046531;28;40084;-84
2023/09/08 01:13:12;;;;;;;24.67;22.25;;;18.70;99.90;;;;;;5059238;28;38392;-84
2023/09/08 01:15:38;;;;;;;24.08;21.52;;;18.70;99.90;;;;;;5047547;28;37205;-85
2023/09/08 01:18:04;;;;;;;23.63;20.83;;;18.70;99.90;;;;;;5047658;28;37266;-84
2023/09/08 01:20:53;;;;;;;24.30;21.77;;;18.70;99.90;;;;;;5046120;28;39386;-84
2023/09/08 01:23:30;;;;;;;23.33;20.92;;;18.60;99.90;;;;;;5025625;28;37344;-84
2023/09/08 01:26:08;;;;;;;25.50;22.80;;;18.60;99.90;;;;;;5047366;28;37856;-85
2023/09/08 01:28:35;;;;;;;26.25;23.58;;;18.50;99.90;;;;;;5040311;28;47400;-84
2023/09/08 01:31:01;;;;;;;24.63;21.92;;;18.60;99.90;;;;;;5033324;28;37965;-83
2023/09/08 01:33:28;;;;;;;26.05;22.67;;;18.60;99.90;;;;;;5043100;28;39913;-84
2023/09/08 01:35:55;;;;;;;24.58;21.98;;;18.50;99.90;;;;;;5063421;28;37916;-84
2023/09/08 01:38:21;;;;;;;24.90;22.35;;;18.50;99.90;;;;;;5038518;28;38635;-85
2023/09/08 01:40:47;;;;;;;26.25;23.65;;;18.50;99.90;;;;;;5055543;28;38812;-85
2023/09/08 01:43:14;;;;;;;27.20;24.50;;;18.50;99.90;;;;;;5051711;28;40216;-85
2023/09/08 01:45:40;;;;;;;27.63;23.33;;;18.40;99.90;;;;;;5034289;28;37235;-85
2023/09/08 01:48:06;;;;;;;24.65;22.08;;;18.40;99.90;;;;;;5057570;28;37477;-86
2023/09/08 01:50:32;;;;;;;25.27;22.67;;;18.40;99.90;;;;;;5033927;28;40611;-85
2023/09/08 01:52:59;;;;;;;24.88;22.35;;;18.40;99.90;;;;;;5065259;28;39233;-82
2023/09/08 01:55:25;;;;;;;26.30;23.50;;;18.40;99.90;;;;;;5043431;28;40199;-84
2023/09/08 01:57:51;;;;;;;24.58;22.05;;;18.40;99.90;;;;;;5052379;28;38325;-85
2023/09/08 02:00:18;;;;;;;24.60;22.02;;;18.30;99.90;;;;;;5063632;28;38563;-85
2023/09/08 02:02:44;;;;;;;25.20;22.52;;;18.30;99.90;;;;;;5051247;28;38392;-85
2023/09/08 02:05:10;;;;;;;27.50;23.55;;;18.30;99.90;;;;;;5069316;28;38685;-85
2023/09/08 02:07:36;;;;;;;26.05;23.17;;;18.30;99.90;;;;;;5043421;28;38084;-85
2023/09/08 02:10:02;;;;;;;25.33;22.60;;;18.30;99.90;;;;;;5068720;28;38653;-84
2023/09/08 02:12:28;;;;;;;26.08;23.25;;;18.30;99.90;;;;;;5057800;28;38127;-85
2023/09/08 02:14:55;;;;;;;24.60;22.00;;;18.20;99.90;;;;;;5031021;28;39006;-84
2023/09/08 02:17:21;;;;;;;25.17;22.33;;;18.20;99.90;;;;;;5047951;28;39193;-84
2023/09/08 02:19:47;;;;;;;25.02;22.48;;;18.20;99.90;;;;;;5046823;28;41106;-84
2023/09/08 02:22:13;;;;;;;25.60;22.90;;;18.20;99.90;;;;;;5018284;28;38984;-85
2023/09/08 02:24:40;;;;;;;24.75;22.23;;;18.10;99.90;;;;;;5066525;28;38363;-85
2023/09/08 02:27:06;;;;;;;26.30;23.52;;;18.10;99.90;;;;;;5049268;28;38120;-86
2023/09/08 02:29:32;;;;;;;26.23;23.35;;;18.10;99.90;;;;;;5039830;28;40630;-85
2023/09/08 02:31:58;;;;;;;26.73;24.02;;;18.10;99.90;;;;;;5050424;28;39643;-84
2023/09/08 02:34:24;;;;;;;25.10;22.60;;;18.10;99.90;;;;;;5057909;28;38827;-85
2023/09/08 02:36:50;;;;;;;26.20;23.52;;;18.10;99.90;;;;;;5046715;28;38055;-85
2023/09/08 02:39:17;;;;;;;29.67;24.58;;;18.10;99.90;;;;;;5033958;28;37623;-85
2023/09/08 02:41:43;;;;;;;27.63;24.52;;;18.10;99.90;;;;;;5045631;28;38368;-85
2023/09/08 02:44:09;;;;;;;25.75;22.95;;;18.10;99.90;;;;;;5047543;28;38328;-85
2023/09/08 02:46:35;;;;;;;25.50;22.90;;;18.10;99.90;;;;;;5031886;28;38572;-85
2023/09/08 02:49:01;;;;;;;28.33;24.23;;;18.10;99.90;;;;;;5030193;28;39799;-85
2023/09/08 02:51:27;;;;;;;29.55;25.23;;;18.10;99.90;;;;;;5029155;28;47160;-84
2023/09/08 02:53:53;;;;;;;25.48;22.88;;;18.10;99.90;;;;;;5045730;28;38400;-84
2023/09/08 02:56:19;;;;;;;26.58;23.83;;;18.10;99.90;;;;;;5049029;28;39355;-85
2023/09/08 02:58:46;;;;;;;26.77;23.90;;;18.10;99.90;;;;;;5028329;28;40531;-85
2023/09/08 03:01:16;;;;;;;26.58;23.67;;;18.00;99.90;;;;;;5069316;28;39405;-85
2023/09/08 03:03:42;;;;;;;27.25;24.35;;;18.00;99.90;;;;;;5047829;28;38555;-85
2023/09/08 03:06:09;;;;;;;26.38;23.55;;;18.00;99.90;;;;;;5047326;28;38444;-85
2023/09/08 03:08:36;;;;;;;26.40;23.58;;;18.00;99.90;;;;;;5029811;28;39853;-85
2023/09/08 03:11:04;;;;;;;25.65;23.02;;;18.00;99.90;;;;;;5047065;28;39477;-85
2023/09/08 03:13:31;;;;;;;27.00;24.10;;;18.00;99.90;;;;;;5042500;28;38902;-84
2023/09/08 03:15:57;;;;;;;26.85;24.08;;;18.00;99.90;;;;;;5051244;28;37071;-85
2023/09/08 03:18:23;;;;;;;25.92;22.80;;;17.90;99.90;;;;;;5027353;28;39607;-86
2023/09/08 03:20:50;;;;;;;25.95;23.20;;;17.90;99.90;;;;;;5043631;28;38346;-86
2023/09/08 03:23:17;;;;;;;27.35;24.65;;;17.90;99.90;;;;;;5029686;28;39215;-86
2023/09/08 03:25:43;;;;;;;25.63;23.02;;;17.90;99.90;;;;;;5028462;28;36602;-83
2023/09/08 03:28:09;;;;;;;25.92;23.33;;;17.90;99.90;;;;;;5027774;28;39191;-83
2023/09/08 03:30:35;;;;;;;26.27;23.50;;;17.90;99.90;;;;;;5048474;28;38617;-84
2023/09/08 03:33:02;;;;;;;26.73;23.92;;;17.90;99.90;;;;;;5046145;28;38555;-83
2023/09/08 03:35:28;;;;;;;26.40;23.70;;;17.90;99.90;;;;;;5038874;28;38052;-83
2023/09/08 03:37:54;;;;;;;26.05;23.30;;;17.80;99.90;;;;;;5025706;28;39475;-84
2023/09/08 03:40:20;;;;;;;27.27;24.25;;;17.80;99.90;;;;;;5051451;28;38874;-84
2023/09/08 03:42:46;;;;;;;25.15;22.75;;;17.80;99.90;;;;;;5061305;28;37997;-84
2023/09/08 03:45:12;;;;;;;27.25;24.50;;;17.80;99.90;;;;;;5045007;28;35837;-84
2023/09/08 03:47:39;;;;;;;25.35;22.63;;;17.80;99.90;;;;;;5034139;28;40461;-84
2023/09/08 03:50:06;;;;;;;25.48;22.88;;;17.80;99.90;;;;;;5028288;28;41705;-84
2023/09/08 03:52:32;;;;;;;26.08;23.23;;;17.80;99.90;;;;;;5043519;28;46997;-86
2023/09/08 03:54:58;;;;;;;25.33;22.70;;;17.80;99.90;;;;;;5042308;28;39072;-85
2023/09/08 03:57:24;;;;;;;25.08;22.45;;;17.80;99.90;;;;;;5064310;28;39929;-85
2023/09/08 03:59:50;;;;;;;24.63;22.08;;;17.70;99.90;;;;;;5069681;28;38234;-85
2023/09/08 04:02:16;;;;;;;26.58;22.88;;;17.80;99.90;;;;;;5033717;28;37427;-85
2023/09/08 04:04:42;;;;;;;24.20;21.67;;;17.80;99.90;;;;;;5033702;28;36299;-86
2023/09/08 04:07:09;;;;;;;24.42;22.08;;;17.80;99.90;;;;;;5042187;28;39622;-85
2023/09/08 04:09:35;;;;;;;25.17;22.50;;;17.70;99.90;;;;;;5050713;28;37282;-85
2023/09/08 04:12:01;;;;;;;24.58;21.98;;;17.70;99.90;;;;;;5046131;28;39456;-85
2023/09/08 04:14:28;;;;;;;29.85;23.50;;;17.70;99.90;;;;;;5040843;28;48739;-85
2023/09/08 04:16:54;;;;;;;25.90;23.23;;;17.70;99.90;;;;;;5047192;28;39527;-85
2023/09/08 04:19:20;;;;;;;26.98;24.10;;;17.60;99.90;;;;;;5050256;28;39486;-86
2023/09/08 04:21:46;;;;;;;26.10;23.42;;;17.60;99.90;;;;;;5050371;28;38857;-87
2023/09/08 04:24:12;;;;;;;23.92;21.40;;;17.60;99.90;;;;;;5049469;28;37693;-85
2023/09/08 04:26:39;;;;;;;26.20;23.63;;;17.60;99.90;;;;;;5028543;28;39130;-87
2023/09/08 04:29:05;;;;;;;25.02;22.40;;;17.60;99.90;;;;;;5027092;28;39074;-85
2023/09/08 04:31:31;;;;;;;27.67;24.02;;;17.50;99.90;;;;;;5048989;28;38259;-87
2023/09/08 04:33:57;;;;;;;26.70;23.67;;;17.50;99.90;;;;;;5031242;28;38105;-86
2023/09/08 04:36:23;;;;;;;25.65;23.05;;;17.50;99.90;;;;;;5037524;28;39558;-86
2023/09/08 04:38:49;;;;;;;25.33;22.73;;;17.50;99.90;;;;;;5045996;28;38345;-86
2023/09/08 04:41:15;;;;;;;24.33;21.77;;;17.50;99.90;;;;;;5048533;28;38118;-86
2023/09/08 04:43:42;;;;;;;24.98;22.52;;;17.50;99.90;;;;;;5042967;28;39266;-87
2023/09/08 04:46:08;;;;;;;25.13;22.52;;;17.40;99.90;;;;;;5046446;28;40305;-85
2023/09/08 04:48:34;;;;;;;25.95;23.25;;;17.40;99.90;;;;;;5045625;28;38516;-86
2023/09/08 04:51:00;;;;;;;27.40;24.60;;;17.40;99.90;;;;;;5039705;28;38876;-86
2023/09/08 04:53:26;;;;;;;24.08;21.63;;;17.40;99.90;;;;;;5038709;28;38485;-86
2023/09/08 04:55:52;;;;;;;25.10;22.50;;;17.40;99.90;;;;;;5047996;28;40530;-86
2023/09/08 04:58:30;;;;;;;26.38;23.70;;;17.40;99.90;;;;;;5033043;28;38349;-88
2023/09/08 05:01:37;;;;;;;;;;;;;;;;;;;;;
2023/09/08 05:04:04;;;;;;;26.30;23.48;;;17.40;99.90;;;;;;4956860;28;48080;-89
2023/09/08 05:06:32;;;;;;;27.33;24.33;;;17.40;99.90;;;;;;5049012;28;38702;-89
2023/09/08 05:09:00;;;;;;;25.00;22.40;;;17.40;99.90;;;;;;5042489;28;37278;-89
2023/09/08 05:11:26;;;;;;;25.55;22.85;;;17.30;99.90;;;;;;5064050;28;38228;-88
2023/09/08 05:13:52;;;;;;;24.33;21.92;;;17.30;99.90;;;;;;5041604;28;38138;-87
2023/09/08 05:16:25;;;;;;;25.08;22.52;;;17.30;99.90;;;;;;5045531;28;37825;-86
2023/09/08 05:18:51;;;;;;;24.45;21.98;;;17.30;99.90;;;;;;5046647;28;38992;-87
2023/09/08 05:21:18;;;;;;;23.42;21.15;;;17.30;99.90;;;;;;5043086;28;37238;-88
2023/09/08 05:23:44;;;;;;;24.50;22.05;;;17.30;99.90;;;;;;5043889;28;37989;-87
2023/09/08 05:26:10;;;;;;;24.05;21.75;;;17.30;99.90;;;;;;5033437;28;40628;-86
2023/09/08 05:28:36;;;;;;;28.98;22.83;;;17.30;99.90;;;;;;5063497;28;39493;-89
2023/09/08 05:31:03;;;;;;;23.77;21.48;;;17.30;99.90;;;;;;5039692;28;37366;-86
2023/09/08 05:33:30;;;;;;;23.80;21.33;;;17.30;99.90;;;;;;5063151;28;36520;-90
2023/09/08 05:35:56;;;;;;;23.90;21.48;;;17.30;99.90;;;;;;5046165;28;40976;-91
2023/09/08 05:38:24;;;;;;;23.75;21.35;;;17.30;99.90;;;;;;5046520;28;37064;-90
2023/09/08 05:40:50;;;;;;;19.50;17.50;;;17.30;99.90;;;;;;5065271;28;37924;-89
2023/09/08 05:43:17;;;;;;;24.05;21.60;;;17.40;99.90;;;;;;5066652;28;37628;-90
2023/09/08 05:45:43;;;;;;;24.65;22.05;;;17.50;99.90;;;;;;5049996;28;39102;-89
2023/09/08 05:48:10;;;;;;;26.05;23.25;;;17.50;99.90;;;;;;5056998;28;39283;-91
2023/09/08 05:50:36;;;;;;;22.85;20.42;;;17.50;99.90;;;;;;5033594;28;37593;-89
2023/09/08 05:53:03;;;;;;;24.20;21.65;;;17.50;99.90;;;;;;5020877;28;36323;-89
2023/09/08 05:55:29;;;;;;;23.63;21.15;;;17.50;99.90;;;;;;5037431;28;40357;-89
2023/09/08 05:57:56;;;;;;;22.17;19.90;;;17.50;99.90;;;;;;5039947;28;38839;-89
2023/09/08 06:00:22;;;;;;;22.77;20.25;;;17.50;99.90;;;;;;5029968;28;40675;-90
2023/09/08 06:02:48;;;;;;;24.00;20.92;;;17.50;99.90;;;;;;5034831;28;37880;-88
2023/09/08 06:05:14;;;;;;;22.95;20.75;;;17.60;99.90;;;;;;5033056;28;37796;-85
2023/09/08 06:07:41;;;;;;;24.00;21.52;;;17.60;99.90;;;;;;5029512;28;38939;-88
2023/09/08 06:10:07;;;;;;;22.83;20.42;;;17.60;99.90;;;;;;5047823;28;38251;-87
2023/09/08 06:12:33;;;;;;;23.40;21.00;;;17.70;99.90;;;;;;5053154;28;37226;-87
2023/09/08 06:15:01;;;;;;;30.25;26.90;;;17.70;99.90;;;;;;5024129;28;40326;-87
2023/09/08 06:17:27;;;;;;;29.95;25.50;;;17.80;99.90;;;;;;5020617;28;39952;-87
2023/09/08 06:19:53;;;;;;;25.20;22.65;;;17.80;99.90;;;;;;5020914;28;39429;-86
2023/09/08 06:22:19;;;;;;;25.70;22.98;;;17.90;99.90;;;;;;5028906;28;37391;-86
2023/09/08 06:24:45;;;;;;;27.95;24.92;;;17.90;99.90;;;;;;5051073;28;40097;-88
2023/09/08 06:27:13;;;;;;;24.35;21.85;;;18.00;99.90;;;;;;5036946;28;39311;-88
2023/09/08 06:29:40;;;;;;;26.20;23.33;;;18.10;99.90;;;;;;5051919;28;38168;-87
2023/09/08 06:32:12;;;;;;;23.35;20.95;;;18.20;99.90;;;;;;5056634;28;37587;-87
2023/09/08 06:34:38;;;;;;;29.15;25.13;;;18.20;99.90;;;;;;5043090;28;38149;-88
2023/09/08 06:37:04;;;;;;;30.20;25.67;;;18.30;99.90;;;;;;5043008;28;38679;-87
2023/09/08 06:39:30;;;;;;;28.48;25.48;;;18.40;99.90;;;;;;5035020;28;38159;-87
2023/09/08 06:41:56;;;;;;;29.50;25.90;;;18.50;99.90;;;;;;5035329;28;38479;-89
2023/09/08 06:44:24;;;;;;;30.83;27.60;;;18.60;99.90;;;;;;5034375;28;41023;-88
2023/09/08 06:46:51;;;;;;;28.52;25.65;;;18.70;99.90;;;;;;5042929;28;39064;-87
2023/09/08 06:49:17;;;;;;;27.55;24.77;;;18.90;99.90;;;;;;5053239;28;38028;-87
2023/09/08 06:51:43;;;;;;;28.77;25.77;;;19.00;99.90;;;;;;5030906;28;37339;-86
2023/09/08 06:54:10;;;;;;;28.40;25.33;;;19.10;99.90;;;;;;5039526;28;39867;-88
2023/09/08 06:56:37;;;;;;;28.60;24.25;;;19.20;99.90;;;;;;5053930;28;38453;-89
2023/09/08 06:59:03;;;;;;;30.08;26.10;;;19.40;99.90;;;;;;5039282;28;36617;-88
2023/09/08 07:01:32;;;;;;;28.60;25.63;;;19.50;99.90;;;;;;5037992;28;38345;-87
2023/09/08 07:03:58;;;;;;;30.95;25.90;;;19.50;99.90;;;;;;5031022;28;39171;-87
2023/09/08 07:06:25;;;;;;;28.33;24.90;;;19.60;99.90;;;;;;5041951;28;39107;-86
2023/09/08 07:08:51;;;;;;;27.13;24.23;;;19.70;99.90;;;;;;5035158;28;38660;-89
2023/09/08 07:11:17;;;;;;;27.60;24.70;;;19.90;99.90;;;;;;5049030;28;39061;-90
2023/09/08 07:13:44;;;;;;;28.83;24.85;;;20.00;99.90;;;;;;5038357;28;37826;-89
2023/09/08 07:16:10;;;;;;;27.63;24.67;;;20.10;99.90;;;;;;5038446;28;39069;-90
2023/09/08 07:18:38;;;;;;;25.88;23.38;;;20.20;99.90;;;;;;5045199;28;38980;-89
2023/09/08 07:21:06;;;;;;;28.63;24.83;;;20.30;99.90;;;;;;5051937;28;38743;-90
2023/09/08 07:23:33;;;;;;;30.90;24.70;;;20.40;99.90;;;;;;5036658;28;47399;-90
2023/09/08 07:25:59;;;;;;;26.25;23.55;;;20.40;99.90;;;;;;5039857;28;37473;-90
2023/09/08 07:28:25;;;;;;;25.88;23.20;;;20.60;99.90;;;;;;5034210;28;38206;-91
2023/09/08 07:30:51;;;;;;;30.27;24.63;;;20.70;99.90;;;;;;5039167;28;38759;-91
2023/09/08 07:33:19;;;;;;;25.92;23.23;;;20.70;99.90;;;;;;5056709;28;40448;-90
2023/09/08 07:35:45;;;;;;;29.40;22.92;;;20.80;99.90;;;;;;5030015;28;38689;-91
2023/09/08 07:38:11;;;;;;;25.05;22.38;;;20.90;99.90;;;;;;5024370;28;39251;-91
2023/09/08 07:40:38;;;;;;;29.02;24.08;;;21.10;99.90;;;;;;5026451;28;36456;-91
2023/09/08 07:43:04;;;;;;;25.13;22.52;;;21.20;99.90;;;;;;5037653;28;37266;-91
2023/09/08 07:45:31;;;;;;;26.38;23.08;;;21.30;99.90;;;;;;5034501;28;39190;-93
2023/09/08 07:47:57;;;;;;;24.23;21.73;;;21.40;99.90;;;;;;5039287;28;38904;-94
2023/09/08 07:50:26;;;;;;;28.50;22.00;;;21.40;99.90;;;;;;5023224;28;38000;-91
2023/09/08 07:52:54;;;;;;;24.92;22.13;;;21.60;99.90;;;;;;5048183;28;39393;-92
2023/09/08 07:55:27;;;;;;;24.58;21.05;;;21.70;99.90;;;;;;5041782;28;39258;-91
2023/09/08 07:57:54;;;;;;;22.65;19.55;;;21.90;99.90;;;;;;5050715;28;35734;-92
2023/09/08 08:00:20;;;;;;;24.63;20.23;;;22.10;99.90;;;;;;5031672;28;38126;-90
2023/09/08 08:02:49;;;;;;;22.35;18.75;;;22.20;99.90;;;;;;5031210;28;41251;-90
2023/09/08 08:05:15;;;;;;;20.95;18.92;;;22.30;99.90;;;;;;5041801;28;38973;-91
2023/09/08 08:07:43;;;;;;;22.13;19.50;;;22.40;99.90;;;;;;5037724;28;38578;-90
2023/09/08 08:10:10;;;;;;;21.60;19.17;;;22.50;99.90;;;;;;5035077;28;38232;-90
2023/09/08 08:12:37;;;;;;;18.58;16.67;;;22.70;99.90;;;;;;5051686;28;39875;-92
2023/09/08 08:15:04;;;;;;;20.42;18.23;;;22.80;99.90;;;;;;5028078;28;36211;-89
2023/09/08 08:17:32;;;;;;;20.45;18.05;;;22.90;99.90;;;;;;5028477;28;38985;-83
2023/09/08 08:20:23;;;;;;;19.30;16.35;;;23.00;99.90;;;;;;5025109;28;36516;-82
2023/09/08 08:26:09;;;;;;;23.42;16.92;;;23.30;99.90;;;;;;5055800;22;38343;-80
2023/09/08 08:28:35;;;;;;;15.95;14.40;;;23.50;99.90;;;;;;5021756;28;37225;-79
2023/09/08 08:31:02;;;;;;;24.15;17.00;;;23.80;99.90;;;;;;5016500;28;36501;-78
2023/09/08 08:33:29;;;;;;;16.98;15.25;;;24.00;99.90;;;;;;5017437;28;37857;-78
2023/09/08 08:35:55;;;;;;;15.00;13.18;;;24.20;99.90;;;;;;5021300;28;38969;-78
2023/09/08 08:38:21;;;;;;;16.88;14.18;;;24.40;99.90;;;;;;5020402;28;37345;-78
2023/09/08 08:40:47;;;;;;;18.90;13.35;;;24.60;99.90;;;;;;5050831;28;37051;-78
2023/09/08 08:43:14;;;;;;;19.50;15.30;;;24.70;99.90;;;;;;5046483;28;40228;-79
2023/09/08 08:45:43;;;;;;;15.35;12.95;;;24.90;99.90;;;;;;5051028;28;37390;-79
2023/09/08 08:48:10;;;;;;;15.52;14.05;;;25.00;99.90;;;;;;5048098;28;38279;-78
2023/09/08 08:50:40;;;;;;;16.02;13.60;;;25.10;99.90;;;;;;5036197;28;37187;-79
2023/09/08 08:53:07;;;;;;;16.48;14.05;;;25.30;99.90;;;;;;5040516;28;38081;-78
2023/09/08 08:55:34;;;;;;;15.82;14.23;;;25.30;99.90;;;;;;5048073;28;39919;-80
2023/09/08 08:58:05;;;;;;;15.10;13.10;;;25.40;99.90;;;;;;5050808;28;38422;-79
2023/09/08 09:00:36;;;;;;;13.57;12.27;;;25.50;99.90;;;;;;5023520;28;47446;-81
2023/09/08 09:03:06;;;;;;;15.27;13.40;;;25.60;99.90;;;;;;5024518;28;38315;-79
2023/09/08 09:05:35;;;;;;;12.68;11.38;;;25.80;99.90;;;;;;5032490;28;39394;-78
2023/09/08 09:08:03;;;;;;;16.73;14.93;;;25.90;99.90;;;;;;5029513;28;38935;-78
2023/09/08 09:10:31;;;;;;;16.00;14.35;;;25.90;99.00;;;;;;5026463;28;48273;-84
2023/09/08 09:12:58;;;;;;;15.02;13.52;;;25.90;99.90;;;;;;5040244;28;40449;-82
2023/09/08 09:15:32;;;;;;;16.52;12.20;;;25.90;99.90;;;;;;5038896;28;38492;-83
2023/09/08 09:18:05;;;;;;;13.30;11.95;;;26.10;99.90;;;;;;5049070;28;37924;-83
2023/09/08 09:20:32;;;;;;;15.05;12.40;;;26.30;99.90;;;;;;5035312;28;47255;-82
2023/09/08 09:22:59;;;;;;;18.40;14.10;;;26.50;99.90;;;;;;5041661;28;39273;-83
2023/09/08 09:25:28;;;;;;;14.52;12.80;;;26.40;95.30;;;;;;5054101;28;37446;-84
2023/09/08 09:27:56;;;;;;;14.48;12.30;;;26.20;93.70;;;;;;5053250;28;38752;-83
2023/09/08 09:30:24;;;;;;;13.55;12.13;;;26.20;95.60;;;;;;5044093;28;37655;-82
2023/09/08 09:33:01;;;;;;;11.18;9.95;;;26.30;99.90;;;;;;5025259;28;37093;-82
2023/09/08 09:35:45;;;;;;;13.50;11.23;;;26.50;99.90;;;;;;5023861;28;46965;-83
2023/09/08 09:38:12;;;;;;;12.18;10.88;;;26.70;96.60;;;;;;5021470;28;38337;-83
2023/09/08 09:40:39;;;;;;;11.18;10.07;;;26.90;74.80;;;;;;5034340;28;37369;-83
2023/09/08 09:43:07;;;;;;;12.43;9.02;;;26.90;81.70;;;;;;5019967;28;39475;-82
2023/09/08 09:45:37;;;;;;;13.48;10.45;;;27.10;95.90;;;;;;5022159;28;37169;-84
2023/09/08 09:48:07;;;;;;;14.57;10.55;;;27.30;73.90;;;;;;5016714;28;37194;-85
2023/09/08 09:50:35;;;;;;;13.02;10.18;;;27.40;90.20;;;;;;5043141;28;37472;-83
2023/09/08 09:53:08;;;;;;;14.05;11.90;;;27.40;84.80;;;;;;5034974;28;38884;-83
2023/09/08 09:55:38;;;;;;;12.90;10.30;;;27.50;73.80;;;;;;5022945;28;38543;-84
2023/09/08 09:58:05;;;;;;;13.02;11.23;;;27.60;59.20;;;;;;5036093;28;39214;-83
2023/09/08 10:00:33;;;;;;;10.38;9.35;;;27.80;83.40;;;;;;5023073;28;36441;-85
2023/09/08 10:02:59;;;;;;;10.02;8.15;;;28.00;99.90;;;;;;5028757;28;39511;-83
2023/09/08 10:05:26;;;;;;;12.25;10.63;;;28.00;95.70;;;;;;5032002;28;37608;-84
2023/09/08 10:07:53;;;;;;;16.88;12.82;;;28.20;86.70;;;;;;5046050;28;37398;-84
2023/09/08 10:10:20;;;;;;;12.85;11.18;;;27.90;54.90;;;;;;5048379;28;36738;-83
2023/09/08 10:12:53;;;;;;;13.23;10.75;;;27.90;56.70;;;;;;5045999;28;37839;-83
2023/09/08 10:15:23;;;;;;;10.40;9.23;;;28.00;61.10;;;;;;5038945;28;37243;-84
2023/09/08 10:18:03;;;;;;;12.63;11.18;;;28.30;97.70;;;;;;5047424;28;38374;-83
2023/09/08 10:20:31;;;;;;;12.05;10.70;;;28.40;60.30;;;;;;5047069;28;47882;-84
2023/09/08 10:23:26;;;;;;;11.02;8.40;;;28.30;89.40;;;;;;5045689;28;38546;-84
2023/09/08 10:25:56;;;;;;;12.40;11.23;;;28.50;79.20;;;;;;5050641;28;48664;-83
2023/09/08 10:28:23;;;;;;;14.13;11.63;;;28.70;35.10;;;;;;5053680;28;38272;-87
2023/09/08 10:30:51;;;;;;;13.88;10.57;;;28.30;26.50;;;;;;5048330;28;36637;-83
2023/09/08 10:33:18;;;;;;;12.10;9.27;;;27.80;30.00;;;;;;5044393;28;37711;-86
2023/09/08 10:35:44;;;;;;;11.07;9.18;;;28.00;40.40;;;;;;5052719;28;37521;-84
2023/09/08 10:38:31;;;;;;;12.93;8.20;;;28.40;72.00;;;;;;5044386;28;37138;-85
2023/09/08 10:41:16;;;;;;;11.60;9.23;;;28.60;41.50;;;;;;5060457;28;37201;-84
2023/09/08 10:44:00;;;;;;;10.18;8.90;;;28.20;16.30;;;;;;5019940;28;47339;-83
2023/09/08 10:46:27;;;;;;;9.07;7.88;;;28.40;20.00;;;;;;5029481;28;37649;-83
2023/09/08 10:49:10;;;;;;;7.55;6.35;;;28.70;58.20;;;;;;5026457;28;39335;-85
2023/09/08 10:51:37;;;;;;;10.10;7.60;;;29.00;15.00;;;;;;5019724;28;46254;-85
2023/09/08 10:54:04;;;;;;;7.97;6.82;;;28.90;1.00;;;;;;5030738;28;38172;-83
2023/09/08 10:56:54;;;;;;;7.00;6.30;;;28.70;1.00;;;;;;5016481;28;38168;-83
2023/09/08 10:59:27;;;;;;;8.80;6.03;;;29.10;39.20;;;;;;5021885;28;37410;-83
2023/09/08 11:01:55;;;;;;;8.48;7.57;;;29.50;21.20;;;;;;5022262;28;37417;-82
2023/09/08 11:04:23;;;;;;;6.45;5.22;;;29.60;1.00;;;;;;5031092;28;39257;-84
2023/09/08 11:06:52;;;;;;;6.38;5.78;;;29.80;21.00;;;;;;5053528;28;37612;-84
2023/09/08 11:09:18;;;;;;;5.45;4.70;;;29.70;1.00;;;;;;5019314;28;39757;-82
2023/09/08 11:11:45;;;;;;;6.60;5.68;;;29.80;39.90;;;;;;5024374;28;38828;-85
2023/09/08 11:14:14;;;;;;;5.75;5.20;;;29.60;1.00;;;;;;5025410;28;37848;-89
2023/09/08 11:16:42;;;;;;;9.18;5.07;;;29.40;1.00;;;;;;5033188;28;37267;-86
2023/09/08 11:19:09;;;;;;;8.00;5.40;;;29.40;32.20;;;;;;5047695;28;36896;-92
2023/09/08 11:21:36;;;;;;;6.55;5.13;;;29.50;1.00;;;;;;5043917;28;37458;-85
2023/09/08 11:24:06;;;;;;;7.82;4.93;;;29.70;1.00;;;;;;5051207;28;38792;-83
2023/09/08 11:26:35;;;;;;;5.43;4.25;;;29.70;5.20;;;;;;5039808;28;38160;-85
2023/09/08 11:29:02;;;;;;;7.57;4.68;;;29.80;22.40;;;;;;5033116;28;38154;-82
2023/09/08 11:31:28;;;;;;;4.50;4.10;;;29.90;1.00;;;;;;5036669;28;35984;-82
2023/09/08 11:33:55;;;;;;;4.85;4.28;;;30.00;1.00;;;;;;5032192;28;38719;-81
2023/09/08 11:36:21;;;;;;;4.55;4.10;;;30.00;19.50;;;;;;5034471;28;37154;-80
2023/09/08 11:38:47;;;;;;;6.32;4.30;;;30.10;1.00;;;;;;5020782;28;39577;-83
2023/09/08 11:41:13;;;;;;;7.85;4.25;;;30.10;1.00;;;;;;5024160;28;38441;-82
2023/09/08 11:43:40;;;;;;;5.75;3.72;;;29.90;1.00;;;;;;5047856;28;40511;-83
2023/09/08 11:46:06;;;;;;;5.18;3.70;;;30.10;1.00;;;;;;5024989;28;38333;-81
2023/09/08 11:48:33;;;;;;;4.28;2.85;;;30.10;1.00;;;;;;5024918;28;37581;-81
2023/09/08 11:50:59;;;;;;;3.47;3.17;;;30.20;1.00;;;;;;5018894;28;37151;-81
2023/09/08 11:53:27;;;;;;;4.70;3.25;;;30.40;1.00;;;;;;5014813;28;38107;-80
2023/09/08 11:55:53;;;;;;;10.70;3.70;;;30.50;1.00;;;;;;5019901;28;40526;-82
2023/09/08 11:58:20;;;;;;;3.40;3.10;;;30.00;1.00;;;;;;5032072;28;37699;-83
2023/09/08 12:00:52;;;;;;;4.43;3.20;;;30.00;1.00;;;;;;5023361;28;37749;-82
2023/09/08 12:03:18;;;;;;;6.70;3.83;;;30.20;1.00;;;;;;5016904;28;37537;-81
2023/09/08 12:05:50;;;;;;;5.10;3.60;;;30.30;1.00;;;;;;5044230;28;38224;-84
2023/09/08 12:08:16;;;;;;;3.70;3.38;;;30.30;1.00;;;;;;5025393;28;36995;-86
2023/09/08 12:10:43;;;;;;;4.80;4.00;;;30.40;1.00;;;;;;5024509;28;36305;-84
2023/09/08 12:13:09;;;;;;;6.38;3.22;;;30.30;1.00;;;;;;5012208;28;38623;-82
2023/09/08 12:15:38;;;;;;;5.45;3.05;;;29.90;1.00;;;;;;5041279;28;41296;-82
2023/09/08 12:18:12;;;;;;;5.20;3.60;;;30.00;1.00;;;;;;5023971;28;37966;-84
2023/09/08 12:20:40;;;;;;;4.97;3.28;;;30.10;1.00;;;;;;5038176;28;36847;-86
2023/09/08 12:23:18;;;;;;;4.28;3.08;;;30.40;1.00;;;;;;5037276;28;38380;-82
2023/09/08 12:25:52;;;;;;;3.60;2.97;;;30.40;1.00;;;;;;5047134;28;38529;-84
2023/09/08 12:28:22;;;;;;;4.28;3.00;;;30.60;1.00;;;;;;5031986;28;38504;-85
2023/09/08 12:30:52;;;;;;;4.85;3.10;;;30.40;1.00;;;;;;5020266;28;36025;-83
2023/09/08 12:33:19;;;;;;;3.55;3.00;;;30.10;1.00;;;;;;5020911;28;38364;-82
2023/09/08 12:35:50;;;;;;;7.63;3.30;;;30.20;1.00;;;;;;5018294;28;37683;-84
2023/09/08 12:38:18;;;;;;;4.47;2.65;;;30.20;1.00;;;;;;5008469;28;37143;-82
2023/09/08 12:40:44;;;;;;;6.38;2.97;;;30.50;1.00;;;;;;5017094;28;37780;-88
2023/09/08 12:43:10;;;;;;;3.53;2.92;;;30.30;1.00;;;;;;5021984;28;38556;-92